Terrace Bay, Canada
Current Conditions -  °F | °C
As of 5:00 PM on Monday 24 Nov 2014 (Local Time) from CYSP Reporting Station
Light Snow Light Snow  
Wind Chill:   Ceiling: 2600
Heat Index: 21°   Visibility: 5mi
Dew Point: 16°   Wind: 20mph
Humidity: 80%   Direction: 30°NNE
Pressure: 29.28"   Gusts: 28mph
Location:  48.78°N, 87.1°W
Report Text: CYSP 242200Z 03017G24KT 5SM -SN DRSN SCT008 OVC026 M06/M09 A2928 RMK SC4SC4 LAST OBS/NEXT 251300UTC SLP931
Loading
Personal Weather Stations






























Interactive Weather Map New forecast layout! Learn more

10-Day Weather Forecast

Advertisements
Track Severe Weather on mobile